createdAt,value
2022-10-18T00:00:52.203Z,21.76
2022-10-18T00:03:54.645Z,20.81
2022-10-18T00:06:57.102Z,20.87
2022-10-18T00:09:59.565Z,21.88
2022-10-18T00:13:03.352Z,21.30
2022-10-18T00:16:10.887Z,21.53
2022-10-18T00:19:13.360Z,21.58
2022-10-18T00:22:15.813Z,21.06
2022-10-18T00:25:18.385Z,21.07
2022-10-18T00:28:22.159Z,21.26
2022-10-18T00:31:26.760Z,21.02
2022-10-18T00:34:29.329Z,21.90
2022-10-18T00:37:32.036Z,20.95
2022-10-18T00:40:34.495Z,21.47
2022-10-18T00:47:10.339Z,21.57
2022-10-18T00:50:13.361Z,22.25
2022-10-18T00:53:19.992Z,22.03
2022-10-18T00:56:22.796Z,21.97
2022-10-18T00:59:26.532Z,22.05
2022-10-18T01:02:30.674Z,22.12
2022-10-18T01:05:34.048Z,21.64
2022-10-18T01:08:47.540Z,21.56
2022-10-18T01:12:03.052Z,21.17
2022-10-18T01:15:12.868Z,21.40
2022-10-18T01:18:24.631Z,21.46
2022-10-18T01:21:34.034Z,21.48
2022-10-18T01:24:55.156Z,21.33
2022-10-18T01:28:05.769Z,21.36
2022-10-18T01:31:16.029Z,21.32
2022-10-18T01:34:20.160Z,20.88
2022-10-18T01:37:23.647Z,20.45
2022-10-18T01:40:26.597Z,21.79
2022-10-18T01:43:31.097Z,21.41
2022-10-18T01:46:35.592Z,21.48
2022-10-18T01:49:38.079Z,21.66
2022-10-18T01:52:49.156Z,22.07
2022-10-18T01:56:02.451Z,22.08
2022-10-18T01:59:30.515Z,21.97
2022-10-18T02:02:44.040Z,21.99
2022-10-18T02:05:53.187Z,21.83
2022-10-18T02:09:01.865Z,21.06
2022-10-18T02:12:05.777Z,20.81
2022-10-18T02:15:10.853Z,20.81
2022-10-18T02:18:19.788Z,20.62
2022-10-18T02:21:23.427Z,20.36
2022-10-18T02:24:31.411Z,20.93
2022-10-18T02:27:34.063Z,21.58
2022-10-18T02:30:40.655Z,22.37
2022-10-18T02:33:52.722Z,21.03
2022-10-18T02:36:58.119Z,20.70
2022-10-18T02:40:00.720Z,20.66
2022-10-18T02:43:03.202Z,20.53
2022-10-18T02:46:06.551Z,20.57
2022-10-18T02:49:10.320Z,20.63
2022-10-18T02:52:12.757Z,20.32
2022-10-18T02:55:15.338Z,20.39
2022-10-18T02:58:17.891Z,20.25
2022-10-18T03:01:20.398Z,20.21
2022-10-18T03:04:24.275Z,21.20
2022-10-18T03:07:26.858Z,20.12
2022-10-18T03:10:29.321Z,19.95
2022-10-18T03:13:32.228Z,19.89
2022-10-18T03:16:34.929Z,19.84
2022-10-18T03:19:39.560Z,19.80
2022-10-18T03:22:42.025Z,19.61
2022-10-18T03:25:46.398Z,19.60
2022-10-18T03:28:49.155Z,19.63
2022-10-18T03:31:51.693Z,20.06
2022-10-18T03:34:55.467Z,19.18
2022-10-18T03:37:57.950Z,19.26
2022-10-18T03:41:00.394Z,19.00
2022-10-18T03:44:02.947Z,19.00
2022-10-18T03:47:05.453Z,19.98
2022-10-18T03:50:10.131Z,19.61
2022-10-18T03:53:12.977Z,20.00
2022-10-18T03:56:15.432Z,19.81
2022-10-18T03:59:18.186Z,19.81
2022-10-18T04:02:20.656Z,18.98
2022-10-18T04:05:26.925Z,19.99
2022-10-18T04:08:29.395Z,19.11
2022-10-18T04:11:31.943Z,19.04
2022-10-18T04:14:34.414Z,18.98
2022-10-18T04:17:36.978Z,19.04
2022-10-18T04:20:40.746Z,19.05
2022-10-18T04:23:43.533Z,19.27
2022-10-18T04:26:46.064Z,19.03
2022-10-18T04:29:48.548Z,19.90
2022-10-18T04:32:51.025Z,19.07
2022-10-18T04:35:54.821Z,18.77
2022-10-18T04:38:57.287Z,19.46
2022-10-18T04:41:59.979Z,18.81
2022-10-18T04:45:02.496Z,18.91
2022-10-18T04:48:05.540Z,18.81
2022-10-18T04:51:09.340Z,18.85
2022-10-18T04:54:11.971Z,19.28
2022-10-18T04:57:14.485Z,19.28
2022-10-18T05:00:16.938Z,18.86
2022-10-18T05:03:19.639Z,18.68
2022-10-18T05:06:23.877Z,20.04
2022-10-18T05:09:26.359Z,18.68
2022-10-18T05:12:29.131Z,19.63
2022-10-18T05:15:31.815Z,18.98
2022-10-18T05:18:34.332Z,18.71
2022-10-18T05:21:38.856Z,19.96
2022-10-18T05:24:41.304Z,18.85
2022-10-18T05:27:43.778Z,18.75
2022-10-18T05:30:46.283Z,19.73
2022-10-18T05:33:48.948Z,20.07
2022-10-18T05:36:52.761Z,19.07
2022-10-18T05:39:55.241Z,18.96
2022-10-18T05:42:57.715Z,19.66
2022-10-18T05:46:00.308Z,18.87
2022-10-18T05:49:02.777Z,18.67
2022-10-18T05:52:06.724Z,18.75
2022-10-18T05:55:09.514Z,18.89
2022-10-18T05:58:11.991Z,19.05
2022-10-18T06:01:14.464Z,18.89
2022-10-18T06:04:17.896Z,18.84
2022-10-18T06:07:22.738Z,19.06
2022-10-18T06:10:25.896Z,19.83
2022-10-18T06:13:31.095Z,20.14
2022-10-18T06:16:35.047Z,19.15
2022-10-18T06:19:37.512Z,19.12
2022-10-18T06:22:41.317Z,19.19
2022-10-18T06:25:43.773Z,19.00
2022-10-18T06:28:46.323Z,19.05
2022-10-18T06:31:48.853Z,19.34
2022-10-18T06:34:51.295Z,19.04
2022-10-18T06:37:55.081Z,18.88
2022-10-18T06:40:58.764Z,19.02
2022-10-18T06:44:07.038Z,18.98
2022-10-18T06:47:09.495Z,19.27
2022-10-18T06:50:12.993Z,20.10
2022-10-18T06:53:18.870Z,19.12
2022-10-18T06:56:21.471Z,19.00
2022-10-18T06:59:26.355Z,19.01
2022-10-18T07:02:33.556Z,20.08
2022-10-18T07:05:36.271Z,19.10
2022-10-18T07:08:40.487Z,20.36
2022-10-18T07:11:44.227Z,20.49
2022-10-18T07:14:47.362Z,20.70
2022-10-18T07:17:50.240Z,20.54
2022-10-18T07:20:52.715Z,20.15
2022-10-18T07:23:57.458Z,20.25
2022-10-18T07:26:59.963Z,20.13
2022-10-18T07:30:04.419Z,20.15
2022-10-18T07:33:08.499Z,20.11
2022-10-18T07:36:12.856Z,20.36
2022-10-18T07:39:16.691Z,20.83
2022-10-18T07:42:19.170Z,20.89
2022-10-18T07:45:21.612Z,20.16
2022-10-18T07:48:24.619Z,20.59
2022-10-18T07:51:28.023Z,20.55
2022-10-18T07:54:31.821Z,19.97
2022-10-18T07:57:34.684Z,19.74
2022-10-18T08:00:37.571Z,20.06
2022-10-18T08:03:40.172Z,19.46
2022-10-18T08:06:42.868Z,20.01
2022-10-18T08:09:46.688Z,20.18
2022-10-18T08:12:49.271Z,19.74
2022-10-18T08:15:51.727Z,19.66
2022-10-18T08:18:54.485Z,19.35
2022-10-18T08:21:56.945Z,19.33
2022-10-18T08:25:00.725Z,20.52
2022-10-18T08:28:03.207Z,19.48
2022-10-18T08:31:06.688Z,20.30
2022-10-18T08:34:09.161Z,20.54
2022-10-18T08:37:11.736Z,20.42
2022-10-18T08:40:15.988Z,20.69
2022-10-18T08:43:27.651Z,19.78
2022-10-18T08:46:30.915Z,20.56
2022-10-18T08:49:42.918Z,20.04
2022-10-18T08:52:53.437Z,19.65
2022-10-18T08:56:03.861Z,19.61
2022-10-18T08:59:10.908Z,19.59
2022-10-18T09:02:21.823Z,19.91
2022-10-18T09:05:32.816Z,19.84
2022-10-18T09:08:51.058Z,20.21
2022-10-18T09:12:09.501Z,20.23
2022-10-18T09:15:16.500Z,20.31
2022-10-18T09:18:38.741Z,20.52
2022-10-18T09:21:50.843Z,20.37
2022-10-18T09:25:00.822Z,20.13
2022-10-18T09:28:16.973Z,20.29
2022-10-18T09:31:23.865Z,20.27
2022-10-18T09:34:32.487Z,20.06
2022-10-18T09:37:35.960Z,19.97
2022-10-18T09:40:48.309Z,20.17
2022-10-18T09:43:56.628Z,20.35
2022-10-18T09:47:02.809Z,19.52
2022-10-18T09:50:18.862Z,20.29
2022-10-18T09:53:28.181Z,19.44
2022-10-18T09:56:37.853Z,19.34
2022-10-18T09:59:47.954Z,19.46
2022-10-18T10:02:50.454Z,20.05
2022-10-18T10:06:04.051Z,20.23
2022-10-18T10:09:14.388Z,20.42
2022-10-18T10:12:28.670Z,20.36
2022-10-18T10:15:37.145Z,19.37
2022-10-18T10:18:43.706Z,19.43
2022-10-18T10:21:47.333Z,19.49
2022-10-18T10:24:51.969Z,19.58
2022-10-18T10:27:54.758Z,18.85
2022-10-18T10:31:19.066Z,19.20
2022-10-18T10:34:21.577Z,19.78
2022-10-18T10:37:31.118Z,19.18
2022-10-18T10:40:35.753Z,18.76
2022-10-18T10:43:40.083Z,19.73
2022-10-18T10:46:47.204Z,19.89
2022-10-18T10:49:49.733Z,19.97
2022-10-18T10:52:52.875Z,19.82
2022-10-18T10:55:57.140Z,19.18
2022-10-18T10:59:09.321Z,18.95
2022-10-18T11:02:23.950Z,19.05
2022-10-18T11:05:29.300Z,19.20
2022-10-18T11:08:37.088Z,20.01
2022-10-18T11:11:49.348Z,20.14
2022-10-18T11:14:58.996Z,20.19
2022-10-18T11:18:14.392Z,20.16
2022-10-18T11:21:20.031Z,20.26
2022-10-18T11:24:23.770Z,20.20
2022-10-18T11:27:30.663Z,20.30
2022-10-18T11:30:43.495Z,20.28
2022-10-18T11:34:08.735Z,20.50
2022-10-18T11:37:32.176Z,20.53
2022-10-18T11:40:51.208Z,20.66
2022-10-18T11:44:03.933Z,20.56
2022-10-18T11:47:16.951Z,20.46
2022-10-18T11:50:27.764Z,20.60
2022-10-18T11:53:39.220Z,20.66
2022-10-18T11:56:48.602Z,20.70
2022-10-18T12:00:01.476Z,20.19
2022-10-18T12:03:16.344Z,20.09
2022-10-18T12:06:22.898Z,20.65
2022-10-18T12:09:28.484Z,20.75
2022-10-18T12:12:37.790Z,20.93
2022-10-18T12:15:41.567Z,20.94
2022-10-18T12:19:02.377Z,21.23
2022-10-18T12:22:17.061Z,21.27
2022-10-18T12:25:20.240Z,21.18
2022-10-18T12:28:31.792Z,20.95
2022-10-18T12:31:41.372Z,21.19
2022-10-18T12:34:47.507Z,20.62
2022-10-18T12:38:03.220Z,21.09
2022-10-18T12:41:06.523Z,21.19
2022-10-18T12:44:20.916Z,20.19
2022-10-18T12:47:25.224Z,20.17
2022-10-18T12:50:35.883Z,19.69
2022-10-18T12:53:39.792Z,19.52
2022-10-18T12:56:43.705Z,19.53
2022-10-18T12:59:46.286Z,20.57
2022-10-18T13:03:27.309Z,21.12
2022-10-18T13:07:03.598Z,20.29
2022-10-18T13:10:36.290Z,19.99
2022-10-18T13:13:51.549Z,20.31
2022-10-18T13:17:01.418Z,19.73
2022-10-18T13:20:31.006Z,20.22
2022-10-18T13:23:43.435Z,20.00
2022-10-18T13:27:24.015Z,20.42
2022-10-18T13:30:46.934Z,20.64
2022-10-18T13:33:49.690Z,20.70
2022-10-18T13:36:58.423Z,20.98
2022-10-18T13:40:16.647Z,20.25
2022-10-18T13:43:56.817Z,20.52
2022-10-18T13:47:34.655Z,21.15
2022-10-18T13:50:42.524Z,20.90
2022-10-18T13:53:57.035Z,20.43
2022-10-18T13:57:18.745Z,20.17
2022-10-18T14:00:48.261Z,19.93
2022-10-18T14:04:20.720Z,20.00
2022-10-18T14:07:26.877Z,19.80
2022-10-18T14:10:57.483Z,20.01
2022-10-18T14:14:09.678Z,20.13
2022-10-18T14:17:29.202Z,19.89
2022-10-18T14:20:49.375Z,19.37
2022-10-18T14:23:53.282Z,19.87
2022-10-18T14:27:13.800Z,19.52
2022-10-18T14:30:19.411Z,19.97
2022-10-18T14:33:28.894Z,19.88
2022-10-18T14:36:37.681Z,19.38
2022-10-18T14:39:40.201Z,19.44
2022-10-18T14:42:49.496Z,19.64
2022-10-18T14:45:51.984Z,18.42
2022-10-18T14:48:57.423Z,18.63
2022-10-18T14:52:01.504Z,18.03
2022-10-18T14:55:04.477Z,18.07
2022-10-18T14:58:15.621Z,18.16
2022-10-18T15:01:20.164Z,17.55
2022-10-18T15:04:31.029Z,17.30
2022-10-18T15:07:34.466Z,16.98
2022-10-18T15:10:37.213Z,17.95
2022-10-18T15:13:47.700Z,18.22
2022-10-18T15:16:53.795Z,17.05
2022-10-18T15:20:03.322Z,17.29
2022-10-18T15:23:23.457Z,16.72
2022-10-18T15:26:29.564Z,19.34
2022-10-18T15:29:36.127Z,17.34
2022-10-18T15:32:40.346Z,16.64
2022-10-18T15:35:44.243Z,16.11
2022-10-18T15:38:49.915Z,16.69
2022-10-18T15:41:54.099Z,16.69
2022-10-18T15:44:56.555Z,16.48
2022-10-18T15:48:01.828Z,15.65
2022-10-18T15:51:07.147Z,15.51
2022-10-18T15:54:18.845Z,15.40
2022-10-18T15:57:21.558Z,15.37
2022-10-18T16:00:24.080Z,15.33
2022-10-18T16:03:26.809Z,15.60
2022-10-18T16:06:30.590Z,14.56
2022-10-18T16:09:33.198Z,15.09
2022-10-18T16:12:35.718Z,14.77
2022-10-18T16:15:38.183Z,14.79
2022-10-18T16:18:40.655Z,14.91
2022-10-18T16:21:44.682Z,14.80
2022-10-18T16:24:47.785Z,14.83
2022-10-18T16:27:50.237Z,14.24
2022-10-18T16:30:56.521Z,14.80
2022-10-18T16:33:59.597Z,14.75
2022-10-18T16:37:03.449Z,14.18
2022-10-18T16:40:23.480Z,14.30
2022-10-18T16:43:26.198Z,14.03
2022-10-18T16:46:30.664Z,14.13
2022-10-18T16:49:33.249Z,14.01
2022-10-18T16:52:37.021Z,14.34
2022-10-18T16:55:40.916Z,13.80
2022-10-18T16:58:43.814Z,13.07
2022-10-18T17:01:46.280Z,12.45
2022-10-18T17:04:48.770Z,12.21
2022-10-18T17:07:52.606Z,12.32
2022-10-18T17:10:57.723Z,12.36
2022-10-18T17:14:07.443Z,12.42
2022-10-18T17:17:12.306Z,12.50
2022-10-18T17:20:21.075Z,12.47
2022-10-18T17:23:24.871Z,12.34
2022-10-18T17:26:29.623Z,12.15
2022-10-18T17:29:34.668Z,12.12
2022-10-18T17:32:37.507Z,11.99
2022-10-18T17:35:40.078Z,11.97
2022-10-18T17:38:44.027Z,12.07
2022-10-18T17:41:46.533Z,11.81
2022-10-18T17:44:50.414Z,11.90
2022-10-18T17:47:54.570Z,13.42
2022-10-18T17:50:57.337Z,13.50
2022-10-18T17:54:01.135Z,13.71
2022-10-18T17:57:03.632Z,13.57
2022-10-18T18:00:08.969Z,13.51
2022-10-18T18:03:11.504Z,13.61
2022-10-18T18:06:16.028Z,13.76
2022-10-18T18:09:21.086Z,13.63
2022-10-18T18:12:23.975Z,13.73
2022-10-18T18:15:26.589Z,13.70
2022-10-18T18:18:29.052Z,13.75
2022-10-18T18:21:31.532Z,12.38
2022-10-18T18:24:35.339Z,12.45
2022-10-18T18:27:39.008Z,12.46
2022-10-18T18:30:41.473Z,12.32
2022-10-18T18:33:44.888Z,12.23
2022-10-18T18:36:47.864Z,12.34
2022-10-18T18:39:51.683Z,12.35
2022-10-18T18:43:07.372Z,12.48
2022-10-18T18:46:16.634Z,12.49
2022-10-18T18:49:19.099Z,12.51
2022-10-18T18:52:21.625Z,12.29
2022-10-18T18:55:25.462Z,12.96
2022-10-18T18:58:32.520Z,13.19
2022-10-18T19:01:37.186Z,12.42
2022-10-18T19:04:41.251Z,12.25
2022-10-18T19:07:43.739Z,12.25
2022-10-18T19:10:49.496Z,12.24
2022-10-18T19:13:52.012Z,12.44
2022-10-18T19:16:55.456Z,13.57
2022-10-18T19:19:59.748Z,12.50
2022-10-18T19:23:02.236Z,13.84
2022-10-18T19:26:12.066Z,14.07
2022-10-18T19:29:16.113Z,14.01
2022-10-18T19:32:19.000Z,13.88
2022-10-18T19:35:21.544Z,14.05
2022-10-18T19:38:23.997Z,13.74
2022-10-18T19:41:29.209Z,13.70
2022-10-18T19:44:34.848Z,13.75
2022-10-18T19:47:38.442Z,13.80
2022-10-18T19:50:40.997Z,14.29
2022-10-18T19:53:43.581Z,14.55
2022-10-18T19:56:47.759Z,14.01
2022-10-18T19:59:50.412Z,14.45
2022-10-18T20:02:53.021Z,14.64
2022-10-18T20:05:56.575Z,14.47
2022-10-18T20:08:59.300Z,12.99
2022-10-18T20:12:03.119Z,12.81
2022-10-18T20:15:08.779Z,14.22
2022-10-18T20:18:11.257Z,14.13
2022-10-18T20:21:16.220Z,14.21
2022-10-18T20:24:18.665Z,14.12
2022-10-18T20:27:22.677Z,14.18
2022-10-18T20:30:25.120Z,14.04
2022-10-18T20:33:27.603Z,13.45
2022-10-18T20:36:31.935Z,14.21
2022-10-18T20:39:35.207Z,14.26
2022-10-18T20:42:39.039Z,14.24
2022-10-18T20:45:41.520Z,12.80
2022-10-18T20:48:44.023Z,12.66
2022-10-18T20:51:46.605Z,13.71
2022-10-18T20:54:49.048Z,13.94
2022-10-18T20:57:52.827Z,14.15
2022-10-18T21:00:55.331Z,13.97
2022-10-18T21:04:01.302Z,14.06
2022-10-18T21:07:03.893Z,14.21
2022-10-18T21:10:07.356Z,13.02
2022-10-18T21:13:11.139Z,12.90
2022-10-18T21:16:13.611Z,12.89
2022-10-18T21:19:18.274Z,12.88
2022-10-18T21:22:20.753Z,12.88
2022-10-18T21:25:23.217Z,12.81
2022-10-18T21:28:27.025Z,12.87
2022-10-18T21:31:31.674Z,12.99
2022-10-18T21:34:34.308Z,13.01
2022-10-18T21:37:36.780Z,13.12
2022-10-18T21:40:44.417Z,14.64
2022-10-18T21:43:50.432Z,14.48
2022-10-18T21:46:52.955Z,14.47
2022-10-18T21:49:55.409Z,13.28
2022-10-18T21:52:57.864Z,13.27
2022-10-18T21:56:06.636Z,13.35
2022-10-18T21:59:12.294Z,14.26
2022-10-18T22:02:14.773Z,13.37
2022-10-18T22:05:17.261Z,13.27
2022-10-18T22:08:19.741Z,13.28
2022-10-18T22:11:24.873Z,14.80
2022-10-18T22:14:28.649Z,15.00
2022-10-18T22:17:31.471Z,14.88
2022-10-18T22:20:34.273Z,15.07
2022-10-18T22:23:39.110Z,14.90
2022-10-18T22:26:43.351Z,14.59
2022-10-18T22:29:47.116Z,14.88
2022-10-18T22:32:49.599Z,14.70
2022-10-18T22:35:52.083Z,14.76
2022-10-18T22:38:55.017Z,14.77
2022-10-18T22:41:57.496Z,14.68
2022-10-18T22:45:01.383Z,14.91
2022-10-18T22:48:03.981Z,14.74
2022-10-18T22:51:07.332Z,14.46
2022-10-18T22:54:09.898Z,14.35
2022-10-18T22:57:12.373Z,14.66
2022-10-18T23:00:16.722Z,14.84
2022-10-18T23:03:19.927Z,14.74
2022-10-18T23:06:25.748Z,14.96
2022-10-18T23:09:28.235Z,14.67
2022-10-18T23:12:30.900Z,14.63
2022-10-18T23:15:34.947Z,14.69
2022-10-18T23:21:45.257Z,14.78
2022-10-18T23:24:47.868Z,14.61
2022-10-18T23:27:50.375Z,14.94
